Time;durP1;ratioP1;P1;durP2;ratioP2;P2;SDS_P1;SDS_P2;PMS_P1;PMS_P2;Temp;Humidity;BMP_temperature;BMP_pressure;BME280_temperature;BME280_humidity;BME280_pressure;Samples;Min_cycle;Max_cycle;Signal;HPM_P1;HPM_P2
2023/03/19 00:00:08;;;;;;;2.05;0.73;;;;;;;19.52;46.61;101001.47;5034800;28;20032;-71
2023/03/19 00:02:34;;;;;;;1.13;0.70;;;;;;;19.50;46.56;100998.13;5034976;28;20029;-72
2023/03/19 00:05:00;;;;;;;4.55;0.90;;;;;;;19.49;46.68;100992.97;5034245;28;20037;-72
2023/03/19 00:07:26;;;;;;;1.50;0.70;;;;;;;19.50;46.62;100998.13;5034543;28;20043;-72
2023/03/19 00:09:51;;;;;;;2.30;0.80;;;;;;;19.46;46.49;100995.88;5034352;28;21226;-73
2023/03/19 00:12:16;;;;;;;1.77;0.70;;;;;;;19.47;46.46;100994.88;5034943;28;20227;-71
2023/03/19 00:14:42;;;;;;;1.40;0.60;;;;;;;19.45;46.54;100987.09;5034403;28;20265;-73
2023/03/19 00:17:08;;;;;;;2.10;0.80;;;;;;;19.45;46.33;100992.38;5033988;28;20032;-71
2023/03/19 00:19:33;;;;;;;2.10;0.70;;;;;;;19.42;46.54;100995.28;5034711;28;20831;-72
2023/03/19 00:21:58;;;;;;;2.13;0.80;;;;;;;19.42;46.47;101003.19;5034183;28;20470;-71
2023/03/19 00:24:24;;;;;;;1.73;0.70;;;;;;;19.43;46.51;100999.59;5034208;28;20363;-72
2023/03/19 00:26:50;;;;;;;1.40;0.70;;;;;;;19.42;46.45;101005.84;5034410;28;20052;-72
2023/03/19 00:29:15;;;;;;;2.75;0.75;;;;;;;19.42;46.60;101005.00;5033773;28;20048;-72
2023/03/19 00:31:41;;;;;;;1.55;0.65;;;;;;;19.40;46.66;101003.31;5033630;28;20037;-71
2023/03/19 00:34:08;;;;;;;1.27;0.70;;;;;;;19.39;46.40;101009.59;5033929;28;20045;-73
2023/03/19 00:36:34;;;;;;;1.77;0.60;;;;;;;19.37;46.47;101000.94;5033342;28;20892;-71
2023/03/19 00:38:59;;;;;;;1.83;0.82;;;;;;;19.39;46.62;101009.59;5033450;28;20040;-72
2023/03/19 00:41:25;;;;;;;2.22;0.77;;;;;;;19.37;46.34;101005.41;5033917;28;20040;-72
2023/03/19 00:43:55;;;;;;;3.08;0.85;;;;;;;19.35;46.57;101000.25;5034099;28;20433;-70
2023/03/19 00:46:21;;;;;;;2.38;0.90;;;;;;;19.36;46.44;101009.03;5034408;28;20033;-72
2023/03/19 00:48:46;;;;;;;1.77;0.75;;;;;;;19.35;46.52;101008.16;5033991;28;20052;-72
2023/03/19 00:51:12;;;;;;;1.50;0.75;;;;;;;19.35;46.43;101012.63;5035086;28;20064;-70
2023/03/19 00:53:39;;;;;;;2.95;0.90;;;;;;;19.33;46.40;101010.09;5034377;28;20099;-72
2023/03/19 00:56:06;;;;;;;2.25;0.80;;;;;;;19.32;46.38;101012.88;5039336;28;20503;-70
2023/03/19 00:58:31;;;;;;;3.05;0.80;;;;;;;19.35;46.31;101007.34;5033488;28;20034;-71
2023/03/19 01:00:56;;;;;;;2.33;0.80;;;;;;;19.36;46.26;101016.94;5033892;28;20068;-71
2023/03/19 01:03:22;;;;;;;4.13;0.90;;;;;;;19.32;46.25;101003.13;5032850;28;20445;-70
2023/03/19 01:05:48;;;;;;;2.80;1.00;;;;;;;19.31;46.46;101006.75;5033469;28;20043;-71
2023/03/19 01:08:14;;;;;;;2.65;1.00;;;;;;;19.31;46.29;101008.56;5033271;28;20044;-71
2023/03/19 01:10:40;;;;;;;2.22;0.88;;;;;;;19.31;46.10;101009.41;5033070;28;20045;-72
2023/03/19 01:13:05;;;;;;;2.22;0.90;;;;;;;19.32;46.26;101012.88;5033103;28;20029;-71
2023/03/19 01:15:37;;;;;;;2.75;0.90;;;;;;;19.30;46.32;101005.06;5033244;28;20068;-72
2023/03/19 01:18:02;;;;;;;2.30;1.02;;;;;;;19.29;46.29;101013.97;5033093;28;20563;-72
2023/03/19 01:20:28;;;;;;;1.65;0.75;;;;;;;19.31;46.34;101014.69;5033751;28;20065;-71
2023/03/19 01:22:53;;;;;;;1.85;0.82;;;;;;;19.29;46.41;101010.50;5032921;28;20036;-72
2023/03/19 01:25:18;;;;;;;2.13;0.82;;;;;;;19.27;46.31;101013.25;5033009;28;20437;-71
2023/03/19 01:27:43;;;;;;;2.80;0.85;;;;;;;19.27;46.32;101015.06;5032736;28;20037;-70
2023/03/19 01:30:09;;;;;;;2.08;0.85;;;;;;;19.27;46.28;101012.44;5033387;28;20436;-70
2023/03/19 01:32:35;;;;;;;3.67;1.00;;;;;;;19.26;46.38;101018.66;5033597;28;20537;-72
2023/03/19 01:35:00;;;;;;;2.72;0.85;;;;;;;19.24;46.24;101017.97;5032467;28;20064;-73
2023/03/19 01:37:26;;;;;;;2.92;1.10;;;;;;;19.26;46.21;101014.22;5032440;28;20037;-71
2023/03/19 01:39:51;;;;;;;2.30;1.00;;;;;;;19.24;46.03;101008.22;5032420;28;20041;-72
2023/03/19 01:42:16;;;;;;;2.45;1.00;;;;;;;19.26;46.30;101016.03;5032775;28;20029;-72
2023/03/19 01:44:43;;;;;;;2.67;1.02;;;;;;;19.25;46.39;101009.91;5031916;28;20045;-73
2023/03/19 01:47:18;;;;;;;2.75;1.02;;;;;;;19.23;46.31;101005.72;5033173;28;20033;-72
2023/03/19 01:49:48;;;;;;;2.33;0.95;;;;;;;19.23;46.46;101013.63;5032286;28;20025;-72
2023/03/19 01:52:14;;;;;;;1.88;0.93;;;;;;;19.24;46.17;101016.16;5032412;28;20536;-72
2023/03/19 01:54:40;;;;;;;2.90;1.10;;;;;;;19.23;46.08;101014.47;5032381;28;20036;-72
2023/03/19 01:57:10;;;;;;;2.30;1.05;;;;;;;19.20;46.24;101012.09;5032077;28;20044;-73
2023/03/19 01:59:41;;;;;;;2.45;0.90;;;;;;;19.19;46.26;101013.06;5032664;28;20501;-74
2023/03/19 02:02:19;;;;;;;2.40;1.00;;;;;;;19.20;46.18;101015.59;5032679;28;20037;-71
2023/03/19 02:04:46;;;;;;;2.25;0.93;;;;;;;19.18;46.16;101006.94;5032427;28;20486;-71
2023/03/19 02:07:12;;;;;;;2.75;1.20;;;;;;;19.21;46.27;101016.41;5032153;28;20037;-71
2023/03/19 02:09:39;;;;;;;2.72;1.00;;;;;;;19.19;46.50;101013.06;5032014;28;20048;-71
2023/03/19 02:12:06;;;;;;;3.08;1.10;;;;;;;19.17;46.22;101012.38;5032486;28;20097;-72
2023/03/19 02:14:31;;;;;;;2.95;1.05;;;;;;;19.18;46.38;101009.59;5030971;28;20055;-70
2023/03/19 02:16:56;;;;;;;2.15;0.90;;;;;;;19.16;46.34;101005.38;5032356;28;20469;-73
2023/03/19 02:19:47;;;;;;;2.03;0.90;;;;;;;19.16;46.27;101010.69;5031030;28;20482;-74
2023/03/19 02:22:15;;;;;;;3.50;1.00;;;;;;;19.16;46.28;101008.88;5032018;28;20029;-73
2023/03/19 02:24:52;;;;;;;2.17;1.02;;;;;;;19.16;46.30;101013.31;5022528;28;20839;-72
2023/03/19 02:27:18;;;;;;;3.75;1.00;;;;;;;19.17;46.47;101009.72;5031761;28;20029;-75
2023/03/19 02:29:43;;;;;;;2.53;1.02;;;;;;;19.15;46.20;101017.78;5031896;28;20075;-72
2023/03/19 02:32:08;;;;;;;4.25;1.00;;;;;;;19.17;46.36;101023.75;5031769;28;20229;-72
2023/03/19 02:34:38;;;;;;;1.70;0.90;;;;;;;19.15;46.23;101023.06;5030607;28;20064;-71
2023/03/19 02:37:10;;;;;;;2.58;1.08;;;;;;;19.12;46.19;101018.03;5031429;28;20033;-72
2023/03/19 02:39:54;;;;;;;2.17;1.02;;;;;;;19.14;46.31;101015.25;5022633;28;20064;-72
2023/03/19 02:42:23;;;;;;;2.53;1.00;;;;;;;19.14;46.18;101015.25;5031558;28;20037;-71
2023/03/19 02:44:48;;;;;;;3.08;1.20;;;;;;;19.13;46.18;101017.03;5031426;28;20029;-71
2023/03/19 02:47:14;;;;;;;2.83;1.10;;;;;;;19.11;46.33;101024.25;5031791;28;20045;-72
2023/03/19 02:49:40;;;;;;;2.78;1.20;;;;;;;19.12;46.24;101025.09;5031604;28;20384;-72
2023/03/19 02:52:05;;;;;;;1.52;0.88;;;;;;;19.13;46.24;101026.78;5031935;28;20036;-70
2023/03/19 02:54:30;;;;;;;2.80;0.95;;;;;;;19.11;46.25;101026.06;5031361;28;20040;-72
2023/03/19 02:56:56;;;;;;;2.72;1.00;;;;;;;19.12;46.34;101030.38;5032080;28;20032;-75
2023/03/19 02:59:21;;;;;;;2.25;0.95;;;;;;;19.10;46.23;101030.50;5031096;28;20029;-72
2023/03/19 03:01:46;;;;;;;2.88;1.00;;;;;;;19.10;46.39;101029.69;5029665;28;20039;-71
2023/03/19 03:04:15;;;;;;;2.42;0.98;;;;;;;19.11;46.40;101031.34;5031403;28;20029;-71
2023/03/19 03:06:40;;;;;;;2.13;1.02;;;;;;;19.02;46.32;101025.03;5031275;28;20037;-72
2023/03/19 03:09:05;;;;;;;2.22;1.00;;;;;;;19.08;46.26;101032.44;5032022;28;20056;-71
2023/03/19 03:11:31;;;;;;;3.42;1.23;;;;;;;19.08;46.31;101026.31;5031103;28;20044;-72
2023/03/19 03:13:56;;;;;;;3.35;1.00;;;;;;;19.08;46.38;101028.97;5031375;28;20045;-72
2023/03/19 03:16:22;;;;;;;3.10;1.10;;;;;;;19.06;46.28;101031.75;5031263;28;20140;-71
2023/03/19 03:18:47;;;;;;;2.58;1.00;;;;;;;19.08;46.31;101026.31;5030704;28;20080;-71
2023/03/19 03:21:12;;;;;;;2.95;1.20;;;;;;;19.07;46.26;101029.94;5031644;28;20028;-71
2023/03/19 03:23:38;;;;;;;3.45;1.08;;;;;;;19.05;46.27;101024.75;5031585;28;20381;-72
2023/03/19 03:26:03;;;;;;;2.88;1.10;;;;;;;19.06;46.42;101029.09;5031037;28;20060;-71
2023/03/19 03:28:28;;;;;;;2.70;1.00;;;;;;;19.07;46.18;101035.22;5031192;28;20036;-71
2023/03/19 03:30:58;;;;;;;3.33;1.30;;;;;;;19.02;46.33;101025.84;5029304;28;20485;-71
2023/03/19 03:33:24;;;;;;;3.10;1.20;;;;;;;19.06;46.32;101031.75;5030561;28;20867;-73
2023/03/19 03:35:49;;;;;;;2.00;0.90;;;;;;;19.05;46.28;101031.88;5029948;28;20021;-72
2023/03/19 03:38:15;;;;;;;2.70;1.10;;;;;;;19.04;46.13;101036.28;5031029;28;20032;-73
2023/03/19 03:40:40;;;;;;;3.17;1.10;;;;;;;19.02;46.24;101028.47;5030398;28;20033;-71
2023/03/19 03:43:06;;;;;;;2.63;1.10;;;;;;;19.03;46.25;101027.53;5030997;28;20037;-72
2023/03/19 03:45:32;;;;;;;2.63;1.10;;;;;;;19.02;46.23;101033.78;5031174;28;20033;-73
2023/03/19 03:47:57;;;;;;;2.33;1.00;;;;;;;19.03;46.23;101032.81;5030260;28;20041;-71
2023/03/19 03:50:22;;;;;;;3.55;1.15;;;;;;;19.02;46.24;101043.50;5031456;28;20086;-70
2023/03/19 03:52:47;;;;;;;3.55;1.20;;;;;;;19.01;46.18;101039.22;5031183;28;20079;-71
2023/03/19 03:55:13;;;;;;;3.05;1.33;;;;;;;18.99;46.18;101039.34;5031771;28;20385;-70
2023/03/19 03:57:38;;;;;;;2.60;1.83;;;;;;;18.99;46.18;101047.25;5029948;28;20071;-72
2023/03/19 04:00:04;;;;;;;3.53;1.20;;;;;;;19.00;46.02;101051.56;5030860;28;20500;-71
2023/03/19 04:02:30;;;;;;;3.25;1.00;;;;;;;18.98;46.03;101045.56;5030466;28;20033;-71
2023/03/19 04:04:55;;;;;;;3.08;1.13;;;;;;;18.98;46.06;101050.84;5031394;28;20041;-72
2023/03/19 04:07:21;;;;;;;4.30;1.02;;;;;;;19.00;46.12;101056.00;5030838;28;20060;-71
2023/03/19 04:09:46;;;;;;;2.03;0.95;;;;;;;19.00;46.06;101050.72;5031561;28;20041;-72
2023/03/19 04:12:12;;;;;;;3.13;1.20;;;;;;;18.99;45.91;101051.69;5031047;28;20064;-71
2023/03/19 04:14:38;;;;;;;2.58;1.05;;;;;;;18.96;45.94;101047.50;5030766;28;20852;-71
2023/03/19 04:17:04;;;;;;;2.83;1.20;;;;;;;18.97;46.00;101045.69;5030034;28;20034;-73
2023/03/19 04:19:30;;;;;;;2.92;1.10;;;;;;;18.97;45.80;101043.06;5020611;28;20049;-70
2023/03/19 04:21:56;;;;;;;2.97;1.27;;;;;;;18.95;45.80;101042.34;5030899;28;20037;-72
2023/03/19 04:24:21;;;;;;;3.75;1.20;;;;;;;18.95;45.96;101051.09;5031038;28;20029;-72
2023/03/19 04:26:48;;;;;;;3.17;1.25;;;;;;;18.95;45.66;101047.63;5030048;28;20065;-70
2023/03/19 04:29:13;;;;;;;3.10;1.30;;;;;;;18.95;45.74;101056.38;5030619;28;20041;-71
2023/03/19 04:31:39;;;;;;;3.47;1.30;;;;;;;18.93;45.83;101053.03;5030597;28;20082;-70
2023/03/19 04:34:05;;;;;;;2.67;1.17;;;;;;;18.95;45.72;101058.19;5030977;28;20026;-70
2023/03/19 04:36:30;;;;;;;3.10;1.15;;;;;;;18.94;45.68;101048.59;5030452;28;20060;-71
2023/03/19 04:38:56;;;;;;;2.90;1.23;;;;;;;18.90;45.59;101045.34;5034358;28;20044;-71
2023/03/19 04:41:21;;;;;;;2.63;1.15;;;;;;;18.94;45.60;101051.22;5034157;28;20029;-72
2023/03/19 04:43:46;;;;;;;2.78;1.10;;;;;;;18.93;45.47;101050.38;5034195;28;20044;-72
2023/03/19 04:46:12;;;;;;;2.83;1.20;;;;;;;18.87;45.61;101042.97;5034293;28;20029;-72
2023/03/19 04:48:38;;;;;;;2.27;1.13;;;;;;;18.91;45.60;101052.31;5033957;28;20402;-70
2023/03/19 04:51:07;;;;;;;3.53;1.40;;;;;;;18.90;45.50;101049.78;5034021;28;20266;-70
2023/03/19 04:53:33;;;;;;;2.47;1.10;;;;;;;18.92;45.58;101051.34;5034058;28;20037;-70
2023/03/19 04:55:58;;;;;;;3.63;1.20;;;;;;;18.88;45.47;101046.44;5034347;28;20469;-72
2023/03/19 04:58:23;;;;;;;1.98;1.00;;;;;;;18.90;45.48;101055.06;5034177;28;20469;-71
2023/03/19 05:00:48;;;;;;;3.05;1.27;;;;;;;18.90;45.28;101055.91;5034193;28;20089;-71
2023/03/19 05:03:14;;;;;;;2.90;1.60;;;;;;;18.89;45.32;101059.50;5033703;28;20065;-72
2023/03/19 05:05:40;;;;;;;2.63;1.13;;;;;;;18.90;45.50;101074.41;5034282;28;20036;-72
2023/03/19 05:08:06;;;;;;;2.42;1.10;;;;;;;18.89;45.32;101077.16;5033417;28;20033;-71
2023/03/19 05:10:32;;;;;;;3.17;1.30;;;;;;;18.85;45.38;101077.41;5033848;28;20044;-71
2023/03/19 05:12:57;;;;;;;2.80;1.15;;;;;;;18.86;45.44;101067.69;5034188;28;20118;-72
2023/03/19 05:15:23;;;;;;;2.88;1.30;;;;;;;18.88;45.26;101075.47;5032225;28;20037;-72
2023/03/19 05:17:48;;;;;;;2.55;1.17;;;;;;;18.87;45.17;101079.94;5033229;28;20118;-72
2023/03/19 05:20:14;;;;;;;2.55;1.20;;;;;;;18.84;45.22;101067.81;5034010;28;20470;-72
2023/03/19 05:22:40;;;;;;;2.78;1.20;;;;;;;18.85;45.16;101076.59;5033838;28;20036;-73
2023/03/19 05:25:06;;;;;;;3.92;1.33;;;;;;;18.85;45.10;101080.06;5033547;28;20093;-72
2023/03/19 05:27:31;;;;;;;2.45;1.10;;;;;;;18.83;45.19;101083.75;5033530;28;20462;-74
2023/03/19 05:29:56;;;;;;;2.47;1.15;;;;;;;18.83;45.11;101081.09;5033312;28;20033;-71
2023/03/19 05:32:22;;;;;;;2.53;1.10;;;;;;;18.82;45.02;101084.72;5033376;28;20128;-72
2023/03/19 05:34:47;;;;;;;2.55;1.10;;;;;;;18.83;45.10;101081.09;5033115;28;20478;-72
2023/03/19 05:37:12;;;;;;;2.67;1.20;;;;;;;18.83;44.99;101089.03;5032079;28;20124;-71
2023/03/19 05:39:37;;;;;;;3.50;1.25;;;;;;;18.81;45.20;101089.16;5031621;28;20520;-73
2023/03/19 05:42:03;;;;;;;3.13;1.13;;;;;;;18.81;45.01;101090.97;5033186;28;20079;-72
2023/03/19 05:44:28;;;;;;;2.78;1.00;;;;;;;18.80;44.86;101092.75;5031129;28;20033;-72
2023/03/19 05:46:54;;;;;;;2.30;1.10;;;;;;;18.81;44.90;101099.72;5033873;28;20041;-74
2023/03/19 05:49:20;;;;;;;2.85;1.20;;;;;;;18.81;44.79;101097.06;5031085;28;20087;-70
2023/03/19 05:51:46;;;;;;;2.78;1.20;;;;;;;18.80;44.75;101098.03;5032409;28;20029;-73
2023/03/19 05:54:11;;;;;;;3.60;1.45;;;;;;;18.76;44.94;101101.06;5034231;28;20036;-72
2023/03/19 05:56:37;;;;;;;2.67;1.17;;;;;;;18.77;44.98;101094.78;5033322;28;20134;-72
2023/03/19 05:59:02;;;;;;;2.88;1.35;;;;;;;18.78;44.87;101107.88;5032133;28;20046;-73
2023/03/19 06:01:27;;;;;;;2.65;1.17;;;;;;;18.78;44.61;101099.13;5031653;28;20030;-70
2023/03/19 06:03:52;;;;;;;2.60;1.20;;;;;;;18.79;44.83;101106.09;5032676;28;20076;-72
2023/03/19 06:06:18;;;;;;;2.22;1.02;;;;;;;18.79;44.84;101111.38;5029835;28;20076;-72
2023/03/19 06:08:43;;;;;;;1.75;1.00;;;;;;;18.78;44.86;101114.97;5033082;28;20035;-74
2023/03/19 06:11:08;;;;;;;3.08;1.23;;;;;;;18.77;44.81;101118.56;5029878;28;20029;-73
2023/03/19 06:13:34;;;;;;;2.33;1.20;;;;;;;18.74;44.68;101114.38;5023692;28;20048;-71
2023/03/19 06:16:00;;;;;;;2.75;1.30;;;;;;;18.76;44.82;101124.81;5032143;28;20487;-73
2023/03/19 06:18:26;;;;;;;2.72;1.30;;;;;;;18.76;44.68;101128.28;5029090;28;20115;-73
2023/03/19 06:20:51;;;;;;;2.65;1.20;;;;;;;18.75;44.54;101129.25;5029496;28;20398;-73
2023/03/19 06:23:17;;;;;;;3.25;1.35;;;;;;;18.75;44.76;101123.13;5031152;28;20044;-71
2023/03/19 06:25:43;;;;;;;2.67;0.93;;;;;;;18.74;44.93;101132.00;5029896;28;20106;-71
2023/03/19 06:28:08;;;;;;;2.25;1.00;;;;;;;18.78;44.98;101136.91;5031122;28;20109;-72
2023/03/19 06:30:34;;;;;;;1.88;0.93;;;;;;;18.77;45.08;101135.25;5032085;28;20516;-74
2023/03/19 06:32:59;;;;;;;2.47;1.10;;;;;;;18.80;45.19;101142.94;5031595;28;20036;-73
2023/03/19 06:35:25;;;;;;;2.55;0.90;;;;;;;18.81;45.17;101141.13;5031634;28;20500;-72
2023/03/19 06:37:51;;;;;;;2.10;1.10;;;;;;;18.83;45.06;101136.56;5031727;28;20033;-71
2023/03/19 06:40:16;;;;;;;1.85;0.80;;;;;;;18.85;45.08;101140.78;5032454;28;20033;-73
2023/03/19 06:42:46;;;;;;;1.83;0.80;;;;;;;18.88;45.23;101144.97;5021761;28;20029;-70
2023/03/19 06:45:15;;;;;;;2.50;1.10;;;;;;;18.89;44.91;101149.31;5029447;28;20091;-72
2023/03/19 06:47:42;;;;;;;1.92;1.00;;;;;;;18.92;45.17;101145.59;5029558;28;20041;-71
2023/03/19 06:50:09;;;;;;;2.72;0.95;;;;;;;18.96;45.16;101155.78;5030574;28;20116;-73
2023/03/19 06:52:35;;;;;;;1.65;0.90;;;;;;;18.96;45.43;101157.56;5030275;28;20029;-72
2023/03/19 06:55:00;;;;;;;1.90;0.80;;;;;;;18.98;45.00;101153.84;5031748;28;20033;-72
2023/03/19 06:57:26;;;;;;;2.75;0.93;;;;;;;19.01;45.11;101156.25;5029972;28;20477;-72
2023/03/19 06:59:51;;;;;;;2.50;1.00;;;;;;;19.01;45.19;101152.78;5029848;28;20033;-73
2023/03/19 07:02:17;;;;;;;1.65;0.75;;;;;;;19.06;45.05;101157.66;5029812;28;20048;-76
2023/03/19 07:04:42;;;;;;;2.00;0.90;;;;;;;19.06;44.92;101161.16;5029925;28;20402;-72
2023/03/19 07:07:07;;;;;;;1.60;0.68;;;;;;;19.05;45.05;101159.47;5031102;28;20043;-72
2023/03/19 07:09:32;;;;;;;3.97;0.82;;;;;;;19.08;44.84;101161.88;5029854;28;20580;-73
2023/03/19 07:11:58;;;;;;;2.35;1.00;;;;;;;19.10;44.86;101173.16;5030774;28;20025;-72
2023/03/19 07:14:24;;;;;;;3.60;1.10;;;;;;;19.14;45.01;101173.78;5031881;28;20051;-72
2023/03/19 07:16:50;;;;;;;1.48;0.70;;;;;;;19.14;44.91;101173.78;5031342;28;20041;-73
2023/03/19 07:19:15;;;;;;;2.72;0.90;;;;;;;19.13;45.01;101167.63;5030355;28;20045;-75
2023/03/19 07:21:40;;;;;;;2.20;1.00;;;;;;;19.19;44.82;101179.50;5038309;28;20029;-73
2023/03/19 07:24:06;;;;;;;2.60;1.00;;;;;;;19.17;44.69;101176.16;5043689;28;20263;-71
2023/03/19 07:26:32;;;;;;;1.77;0.90;;;;;;;19.19;44.85;101182.16;5043555;28;20040;-74
2023/03/19 07:28:57;;;;;;;3.33;1.10;;;;;;;19.19;44.90;101192.72;5032028;28;20259;-70
2023/03/19 07:31:22;;;;;;;2.28;1.00;;;;;;;19.19;45.21;101196.19;5045066;28;20948;-75
2023/03/19 07:33:48;;;;;;;2.10;0.93;;;;;;;19.18;44.89;101202.47;5041479;28;20056;-71
2023/03/19 07:36:13;;;;;;;3.55;0.98;;;;;;;19.23;45.02;101195.94;5039087;28;20286;-75
2023/03/19 07:38:38;;;;;;;3.65;0.93;;;;;;;19.23;45.21;101198.59;5039523;28;20113;-71
2023/03/19 07:41:04;;;;;;;2.67;1.02;;;;;;;19.23;45.13;101199.44;5035124;28;20041;-73
2023/03/19 07:43:30;;;;;;;2.22;0.90;;;;;;;19.23;45.27;101203.88;5029098;28;20041;-74
2023/03/19 07:45:55;;;;;;;2.40;1.02;;;;;;;19.21;45.25;101196.91;5031361;28;20045;-74
2023/03/19 07:48:20;;;;;;;3.28;1.20;;;;;;;19.21;45.94;101196.06;5030114;28;20052;-73
2023/03/19 07:50:46;;;;;;;3.40;1.00;;;;;;;19.22;45.58;101197.75;5030282;28;20337;-73
2023/03/19 07:53:11;;;;;;;3.10;1.10;;;;;;;19.25;45.98;101201.94;5031131;28;20112;-76
2023/03/19 07:55:37;;;;;;;2.40;0.98;;;;;;;19.28;45.85;101210.50;5030450;28;20064;-74
2023/03/19 07:58:02;;;;;;;5.38;1.17;;;;;;;19.29;45.95;101211.31;5030371;28;20033;-74
2023/03/19 08:00:28;;;;;;;3.10;1.23;;;;;;;19.28;46.01;101204.34;5030873;28;20037;-76
2023/03/19 08:02:53;;;;;;;3.85;1.05;;;;;;;19.29;46.11;101208.66;5029776;28;20033;-74
2023/03/19 08:05:18;;;;;;;2.33;0.97;;;;;;;19.29;46.27;101213.97;5031223;28;20394;-74
2023/03/19 08:07:44;;;;;;;3.10;1.17;;;;;;;19.30;46.22;101216.47;5030259;28;20274;-72
2023/03/19 08:10:10;;;;;;;6.50;1.10;;;;;;;19.31;46.35;101220.81;5030831;28;20156;-73
2023/03/19 08:12:39;;;;;;;4.80;1.02;;;;;;;19.31;46.35;101217.31;5034774;28;20098;-71
2023/03/19 08:15:06;;;;;;;3.72;1.02;;;;;;;19.31;46.56;101219.94;5034446;28;20040;-71
2023/03/19 08:17:36;;;;;;;4.25;1.10;;;;;;;19.32;46.66;101225.13;5034401;28;20029;-72
2023/03/19 08:20:10;;;;;;;4.28;1.23;;;;;;;19.28;46.62;101218.41;5034132;28;20056;-73
2023/03/19 08:22:36;;;;;;;3.78;1.50;;;;;;;19.31;46.51;101223.47;5034428;28;20029;-71
2023/03/19 08:25:03;;;;;;;3.22;1.25;;;;;;;19.32;46.60;101229.56;5034488;28;20036;-72
2023/03/19 08:27:30;;;;;;;3.28;1.15;;;;;;;19.34;46.54;101231.13;5032910;28;20448;-75
2023/03/19 08:29:55;;;;;;;4.90;1.40;;;;;;;19.37;46.72;101233.50;5033752;28;20473;-71
2023/03/19 08:32:20;;;;;;;4.43;1.45;;;;;;;19.48;46.36;101235.28;5031781;28;20043;-68
2023/03/19 08:34:47;;;;;;;3.65;1.40;;;;;;;19.55;46.23;101236.50;5032764;28;20280;-69
2023/03/19 08:37:12;;;;;;;3.03;1.25;;;;;;;19.52;46.61;101225.34;5033448;28;20033;-67
2023/03/19 08:39:37;;;;;;;4.50;1.58;;;;;;;19.62;46.09;101242.09;5033378;28;20759;-70
2023/03/19 08:42:03;;;;;;;4.57;1.33;;;;;;;19.67;46.18;101245.22;5033211;28;20892;-73
2023/03/19 08:44:28;;;;;;;4.53;1.38;;;;;;;19.64;46.12;101247.28;5033228;28;20033;-69
2023/03/19 08:46:54;;;;;;;3.93;1.30;;;;;;;19.63;46.18;101249.09;5033031;28;20041;-68
2023/03/19 08:49:19;;;;;;;5.28;1.60;;;;;;;19.65;46.24;101252.44;5033165;28;20604;-67
2023/03/19 08:51:45;;;;;;;4.45;1.27;;;;;;;19.68;46.23;101254.00;5032852;28;20386;-71
2023/03/19 08:54:12;;;;;;;6.93;1.65;;;;;;;19.66;46.30;101254.13;5033073;28;20461;-70
2023/03/19 08:56:38;;;;;;;5.05;1.70;;;;;;;19.63;46.43;101261.44;5032734;28;20045;-69
2023/03/19 08:59:03;;;;;;;4.07;1.58;;;;;;;19.62;46.35;101257.97;5032785;28;20039;-72
2023/03/19 09:01:28;;;;;;;5.88;1.40;;;;;;;19.69;45.95;101267.09;5033187;28;20063;-73
2023/03/19 09:03:54;;;;;;;4.68;1.50;;;;;;;19.69;46.24;101269.75;5033110;28;20056;-69
2023/03/19 09:06:19;;;;;;;6.55;1.52;;;;;;;19.66;46.06;101266.50;5032886;28;20059;-69
2023/03/19 09:08:45;;;;;;;3.50;1.40;;;;;;;19.65;46.26;101267.47;5032972;28;20135;-70
2023/03/19 09:11:10;;;;;;;4.65;1.40;;;;;;;19.65;46.71;101264.81;5032900;28;20033;-70
2023/03/19 09:13:36;;;;;;;5.57;1.63;;;;;;;19.64;46.18;101268.44;5032529;28;20043;-69
2023/03/19 09:16:02;;;;;;;4.40;1.30;;;;;;;19.64;46.22;101268.44;5032249;28;20056;-70
2023/03/19 09:18:27;;;;;;;5.88;1.63;;;;;;;19.66;46.46;101280.56;5031764;28;20493;-71
2023/03/19 09:20:52;;;;;;;4.60;1.48;;;;;;;19.69;46.49;101280.31;5033182;28;20507;-68
2023/03/19 09:23:18;;;;;;;6.20;1.70;;;;;;;19.72;46.13;101282.69;5032092;28;20046;-69
2023/03/19 09:25:45;;;;;;;5.57;1.40;;;;;;;19.73;46.21;101276.44;5032698;28;20495;-69
2023/03/19 09:28:11;;;;;;;5.32;1.70;;;;;;;19.76;46.18;101285.97;5032352;28;20040;-68
2023/03/19 09:30:37;;;;;;;3.88;1.20;;;;;;;19.78;45.97;101284.03;5032621;28;20056;-68
2023/03/19 09:33:03;;;;;;;11.20;2.78;;;;;;;19.78;46.36;101284.03;5031806;28;20409;-70
2023/03/19 09:35:30;;;;;;;3.67;1.33;;;;;;;19.74;46.31;101288.72;5031297;28;20043;-69
2023/03/19 09:37:56;;;;;;;6.20;1.50;;;;;;;19.71;46.38;101288.09;5032088;28;20052;-73
2023/03/19 09:40:26;;;;;;;6.22;1.55;;;;;;;19.69;46.38;101296.19;5030798;28;20032;-69
2023/03/19 09:43:19;;;;;;;4.80;1.50;;;;;;;19.75;46.22;101298.31;5031585;28;20025;-71
2023/03/19 09:45:46;;;;;;;9.40;1.55;;;;;;;19.72;46.33;101293.25;5032143;28;20033;-69
2023/03/19 09:48:18;;;;;;;6.57;1.42;;;;;;;19.75;45.99;101294.84;5032208;28;20110;-68
2023/03/19 09:50:46;;;;;;;5.25;1.35;;;;;;;19.72;46.46;101298.56;5032171;28;20482;-69
2023/03/19 09:53:40;;;;;;;7.13;1.45;;;;;;;19.72;46.46;101295.91;5029397;28;20033;-72
2023/03/19 09:56:10;;;;;;;5.55;1.50;;;;;;;19.73;46.51;101299.41;5025223;28;20034;-75
2023/03/19 09:58:35;;;;;;;7.25;1.50;;;;;;;19.75;46.38;101300.13;5025592;28;20037;-72
2023/03/19 10:01:01;;;;;;;12.40;1.60;;;;;;;19.70;46.38;101289.09;5026557;28;20528;-71
2023/03/19 10:03:36;;;;;;;9.93;1.60;;;;;;;19.75;46.22;101302.78;5025898;28;20041;-74
2023/03/19 10:06:21;;;;;;;5.43;1.75;;;;;;;19.73;46.39;101308.19;5014769;28;20435;-67
2023/03/19 10:08:49;;;;;;;;;;;;;;;19.76;46.22;101304.50;5024774;28;20473;-67
2023/03/19 10:11:51;;;;;;;6.05;1.60;;;;;;;19.78;46.27;101309.66;5025395;28;19921;-66
2023/03/19 10:14:35;;;;;;;6.05;1.73;;;;;;;19.74;46.36;101306.38;5023054;28;20453;-67
2023/03/19 10:17:05;;;;;;;5.47;1.60;;;;;;;19.74;46.56;101311.66;5027232;28;20040;-71
2023/03/19 10:19:48;;;;;;;5.53;1.52;;;;;;;19.69;46.59;101303.25;5023910;28;20911;-67
2023/03/19 10:22:28;;;;;;;8.93;1.75;;;;;;;19.70;46.52;101307.59;5023961;28;20045;-69
2023/03/19 10:24:56;;;;;;;6.88;1.75;;;;;;;19.73;46.82;101307.34;5023644;28;20882;-68
2023/03/19 10:27:27;;;;;;;5.25;1.45;;;;;;;19.68;46.50;101305.06;5023891;28;20120;-68
2023/03/19 10:29:53;;;;;;;6.57;2.15;;;;;;;19.77;46.58;101308.78;5022917;28;20789;-69
2023/03/19 10:32:44;;;;;;;6.00;1.52;;;;;;;19.78;46.50;101304.38;5025600;28;20025;-72
2023/03/19 10:35:43;;;;;;;6.68;1.40;;;;;;;19.81;46.41;101310.25;5024492;28;20063;-72
2023/03/19 10:38:20;;;;;;;6.72;1.67;;;;;;;19.85;46.57;101316.13;5029455;28;20037;-73
2023/03/19 10:41:24;;;;;;;4.22;1.52;;;;;;;19.83;46.29;101316.25;5025765;28;20544;-70
2023/03/19 10:43:55;;;;;;;4.03;1.35;;;;;;;19.80;46.30;101313.84;5024189;28;20357;-70
2023/03/19 10:46:21;;;;;;;6.38;1.52;;;;;;;19.81;46.36;101320.81;5025404;28;20036;-72
2023/03/19 10:48:47;;;;;;;5.28;1.48;;;;;;;19.80;46.37;101321.78;5024513;28;20103;-72
2023/03/19 10:51:22;;;;;;;6.22;1.35;;;;;;;19.79;46.36;101325.41;5024586;28;20044;-72
2023/03/19 10:53:56;;;;;;;5.22;1.65;;;;;;;19.78;46.42;101328.16;5026932;28;20047;-72
2023/03/19 10:56:30;;;;;;;4.13;1.55;;;;;;;19.78;46.47;101334.28;5023056;28;20112;-72
2023/03/19 10:59:00;;;;;;;4.07;1.45;;;;;;;19.83;46.13;101326.00;5024892;28;20047;-72
2023/03/19 11:01:37;;;;;;;9.63;2.08;;;;;;;19.81;46.45;101331.41;5025175;28;20033;-74
2023/03/19 11:04:22;;;;;;;3.92;1.40;;;;;;;19.85;46.28;101337.28;5024179;28;20088;-70
2023/03/19 11:06:52;;;;;;;5.03;1.40;;;;;;;19.86;46.14;101331.03;5025140;28;20099;-71
2023/03/19 11:09:26;;;;;;;5.95;1.65;;;;;;;19.86;45.98;101331.03;5024492;28;20527;-70
2023/03/19 11:12:04;;;;;;;5.95;1.33;;;;;;;19.87;46.10;101319.50;5025192;28;20032;-71
2023/03/19 11:14:42;;;;;;;5.68;1.60;;;;;;;19.90;46.03;101333.31;5024909;28;20044;-71
2023/03/19 11:17:16;;;;;;;3.75;1.27;;;;;;;19.89;46.18;101328.97;5024263;28;20152;-70
2023/03/19 11:19:51;;;;;;;6.13;1.50;;;;;;;19.87;46.32;101332.72;5024044;28;20596;-69
2023/03/19 11:22:19;;;;;;;;;;;;;;;19.90;46.12;101340.38;5025042;28;20037;-69
2023/03/19 11:24:56;;;;;;;4.85;1.40;;;;;;;19.89;46.18;101336.91;5024085;28;19986;-69
2023/03/19 11:27:30;;;;;;;5.82;1.50;;;;;;;19.86;46.13;101339.78;5023864;28;20033;-69